Time;durP1;ratioP1;P1;durP2;ratioP2;P2;SDS_P1;SDS_P2;PMS_P1;PMS_P2;Temp;Humidity;BMP_temperature;BMP_pressure;BME280_temperature;BME280_humidity;BME280_pressure;Samples;Min_cycle;Max_cycle;Signal;HPM_P1;HPM_P2
2023/10/22 00:00:07;;;;;;;0.03;0.03;;;12.40;99.90;;;;;;5081813;27;20035;-67
2023/10/22 00:02:36;;;;;;;0.03;0.03;;;12.50;99.90;;;;;;5109530;27;20111;-67
2023/10/22 00:05:06;;;;;;;0.10;0.10;;;12.50;99.90;;;;;;5090717;28;20032;-68
2023/10/22 00:07:32;;;;;;;0.10;0.10;;;12.40;99.90;;;;;;5116920;27;20044;-67
2023/10/22 00:09:58;;;;;;;0.05;0.05;;;12.40;99.90;;;;;;5113441;27;20479;-67
2023/10/22 00:12:24;;;;;;;3.63;0.45;;;12.40;99.90;;;;;;5086957;27;20044;-67
2023/10/22 00:14:49;;;;;;;0.20;0.20;;;12.40;99.90;;;;;;5092130;28;20073;-67
2023/10/22 00:17:15;;;;;;;0.10;0.10;;;12.40;99.90;;;;;;5090522;28;20032;-66
2023/10/22 00:19:41;;;;;;;0.55;0.10;;;12.40;99.90;;;;;;5092840;28;20044;-67
2023/10/22 00:22:06;;;;;;;0.10;0.10;;;12.40;99.90;;;;;;5076879;27;20473;-67
2023/10/22 00:24:32;;;;;;;0.20;0.20;;;12.40;99.90;;;;;;5084104;28;20063;-67
2023/10/22 00:27:00;;;;;;;0.10;0.10;;;12.40;99.90;;;;;;5089282;28;20130;-67
2023/10/22 00:29:25;;;;;;;0.20;0.20;;;12.40;99.90;;;;;;5091063;28;20092;-67
2023/10/22 00:31:51;;;;;;;0.10;0.10;;;12.40;99.90;;;;;;5088240;27;20068;-68
2023/10/22 00:34:17;;;;;;;0.10;0.10;;;12.40;99.90;;;;;;5088434;27;20485;-68
2023/10/22 00:36:42;;;;;;;0.17;0.17;;;12.40;99.90;;;;;;5113276;27;20649;-67
2023/10/22 00:39:08;;;;;;;0.30;0.30;;;12.40;99.90;;;;;;5083097;27;20039;-67
2023/10/22 00:41:33;;;;;;;0.10;0.10;;;12.40;99.90;;;;;;5089156;28;20114;-66
2023/10/22 00:43:59;;;;;;;0.10;0.10;;;12.40;99.90;;;;;;5073112;27;20035;-67
2023/10/22 00:46:25;;;;;;;0.10;0.10;;;12.40;99.90;;;;;;5087064;27;20274;-68
2023/10/22 00:48:52;;;;;;;0.10;0.10;;;12.40;99.90;;;;;;5085264;28;20094;-67
2023/10/22 00:51:19;;;;;;;0.35;0.35;;;12.40;99.90;;;;;;5085590;28;20130;-67
2023/10/22 00:53:45;;;;;;;0.10;0.10;;;12.30;99.90;;;;;;5088993;28;20089;-67
2023/10/22 00:56:15;;;;;;;0.08;0.08;;;12.30;99.90;;;;;;5111631;27;20048;-67
2023/10/22 00:58:43;;;;;;;0.10;0.10;;;12.30;99.90;;;;;;5093546;27;20042;-66
2023/10/22 01:01:12;;;;;;;0.10;0.10;;;12.20;99.90;;;;;;5088398;28;20040;-67
2023/10/22 01:03:38;;;;;;;0.10;0.10;;;12.20;99.90;;;;;;5110905;27;20409;-67
2023/10/22 01:06:05;;;;;;;0.10;0.10;;;12.10;99.90;;;;;;5105314;27;20071;-67
2023/10/22 01:08:33;;;;;;;0.10;0.10;;;12.10;99.90;;;;;;5089729;27;20074;-67
2023/10/22 01:11:11;;;;;;;0.05;0.05;;;12.10;99.90;;;;;;5082085;28;20432;-66
2023/10/22 01:13:38;;;;;;;0.10;0.10;;;12.10;99.90;;;;;;5105807;27;20417;-66
2023/10/22 01:16:05;;;;;;;2.38;0.35;;;12.00;99.90;;;;;;5112657;27;20118;-65
2023/10/22 01:18:31;;;;;;;0.13;0.13;;;12.00;99.90;;;;;;5090705;28;20046;-65
2023/10/22 01:20:57;;;;;;;0.10;0.10;;;12.00;99.90;;;;;;5084378;28;20032;-66
2023/10/22 01:23:23;;;;;;;0.10;0.10;;;12.00;99.90;;;;;;5112274;27;20040;-66
2023/10/22 01:25:49;;;;;;;0.10;0.10;;;12.00;99.90;;;;;;5085887;28;20028;-65
2023/10/22 01:28:15;;;;;;;0.10;0.10;;;11.90;99.90;;;;;;5087382;27;20494;-64
2023/10/22 01:30:41;;;;;;;0.10;0.10;;;11.90;99.90;;;;;;5083338;28;20354;-64
2023/10/22 01:33:07;;;;;;;0.00;0.00;;;11.90;99.90;;;;;;5089608;27;20499;-65
2023/10/22 01:35:32;;;;;;;0.10;0.10;;;11.90;99.90;;;;;;5088971;27;20071;-66
2023/10/22 01:37:58;;;;;;;0.10;0.10;;;11.80;99.90;;;;;;5091522;28;20039;-65
2023/10/22 01:40:23;;;;;;;0.10;0.10;;;11.90;99.90;;;;;;5083691;28;20042;-65
2023/10/22 01:42:50;;;;;;;0.20;0.10;;;11.90;99.90;;;;;;5104819;27;20813;-65
2023/10/22 01:45:15;;;;;;;0.10;0.10;;;11.90;99.90;;;;;;5081754;27;20046;-65
2023/10/22 01:47:41;;;;;;;0.08;0.08;;;11.80;99.90;;;;;;5097758;27;20035;-66
2023/10/22 01:50:07;;;;;;;0.35;0.32;;;11.90;99.90;;;;;;5083297;28;20493;-65
2023/10/22 01:52:33;;;;;;;0.25;0.25;;;11.90;99.90;;;;;;5080892;27;20042;-65
2023/10/22 01:54:59;;;;;;;0.10;0.10;;;11.90;99.90;;;;;;5084770;27;20039;-65
2023/10/22 01:57:24;;;;;;;0.10;0.10;;;11.90;99.90;;;;;;5067601;28;20044;-65
2023/10/22 01:59:50;;;;;;;0.20;0.20;;;11.80;99.90;;;;;;5081792;28;20158;-64
2023/10/22 02:02:17;;;;;;;0.30;0.30;;;11.80;99.90;;;;;;5078994;28;20130;-65
2023/10/22 02:04:43;;;;;;;0.30;0.30;;;11.80;99.90;;;;;;5110011;27;20394;-64
2023/10/22 02:07:08;;;;;;;0.13;0.13;;;11.80;99.90;;;;;;5083321;28;20039;-65
2023/10/22 02:09:34;;;;;;;0.10;0.10;;;11.80;99.90;;;;;;5074240;28;20024;-65
2023/10/22 02:12:00;;;;;;;0.10;0.10;;;11.90;99.90;;;;;;5077948;28;20050;-65
2023/10/22 02:14:25;;;;;;;0.80;0.80;;;11.90;99.90;;;;;;5104147;27;20057;-66
2023/10/22 02:16:51;;;;;;;0.10;0.10;;;11.80;99.90;;;;;;5104203;28;20486;-66
2023/10/22 02:19:16;;;;;;;0.10;0.10;;;11.80;99.90;;;;;;5086622;28;20039;-65
2023/10/22 02:21:42;;;;;;;0.10;0.10;;;11.90;99.90;;;;;;5079630;28;20036;-65
2023/10/22 02:24:08;;;;;;;0.10;0.10;;;11.80;99.90;;;;;;5078833;28;20741;-65
2023/10/22 02:26:34;;;;;;;0.10;0.10;;;11.90;99.90;;;;;;5108390;27;20035;-65
2023/10/22 02:28:59;;;;;;;0.10;0.10;;;11.80;99.90;;;;;;5081463;27;20043;-65
2023/10/22 02:31:25;;;;;;;0.03;0.03;;;11.80;99.90;;;;;;5076398;28;20627;-66
2023/10/22 02:34:01;;;;;;;0.30;0.30;;;11.80;99.90;;;;;;5081256;28;21575;-65
2023/10/22 02:36:27;;;;;;;0.13;0.13;;;11.90;99.90;;;;;;5075201;28;20043;-65
2023/10/22 02:38:52;;;;;;;0.10;0.10;;;11.90;99.90;;;;;;5079346;27;20085;-65
2023/10/22 02:41:18;;;;;;;0.10;0.10;;;11.90;99.90;;;;;;5090540;28;20045;-65
2023/10/22 02:43:43;;;;;;;0.10;0.10;;;11.90;99.90;;;;;;5077448;28;20039;-65
2023/10/22 02:46:09;;;;;;;0.10;0.10;;;11.80;99.90;;;;;;5083741;28;20031;-65
2023/10/22 02:48:34;;;;;;;2.08;1.65;;;11.90;99.90;;;;;;5078667;28;20043;-66
2023/10/22 02:51:04;;;;;;;0.10;0.10;;;11.90;99.90;;;;;;5080403;28;20715;-65
2023/10/22 02:53:29;;;;;;;0.10;0.10;;;11.80;99.90;;;;;;5080480;28;20047;-65
2023/10/22 02:56:00;;;;;;;0.08;0.08;;;11.90;99.90;;;;;;5085332;28;20391;-66
2023/10/22 02:58:26;;;;;;;1.65;0.20;;;11.90;99.90;;;;;;5080806;28;20540;-65
2023/10/22 03:00:51;;;;;;;0.43;0.20;;;11.90;99.90;;;;;;5111297;28;20040;-66
2023/10/22 03:03:17;;;;;;;0.10;0.10;;;11.90;99.90;;;;;;5077425;28;20039;-65
2023/10/22 03:05:42;;;;;;;0.00;0.00;;;11.90;99.90;;;;;;5107120;28;20483;-65
2023/10/22 03:08:08;;;;;;;0.10;0.10;;;11.90;99.90;;;;;;5078194;28;20785;-65
2023/10/22 03:10:37;;;;;;;0.30;0.30;;;11.90;99.90;;;;;;5077473;28;20059;-66
2023/10/22 03:13:04;;;;;;;0.10;0.10;;;11.90;99.90;;;;;;5082569;28;20394;-66
2023/10/22 03:15:30;;;;;;;0.47;0.30;;;11.90;99.90;;;;;;5081837;28;20042;-66
2023/10/22 03:17:56;;;;;;;0.00;0.00;;;12.00;99.90;;;;;;5079877;28;20690;-66
2023/10/22 03:20:25;;;;;;;1.40;0.30;;;11.90;99.90;;;;;;5113048;27;20123;-65
2023/10/22 03:22:51;;;;;;;0.10;0.10;;;12.00;99.90;;;;;;5083220;28;20039;-65
2023/10/22 03:25:21;;;;;;;0.10;0.10;;;11.90;99.90;;;;;;5106810;27;20047;-65
2023/10/22 03:27:47;;;;;;;0.10;0.10;;;12.00;99.90;;;;;;5099977;27;20043;-65
2023/10/22 03:30:13;;;;;;;0.10;0.10;;;11.90;99.90;;;;;;5085040;28;20501;-65
2023/10/22 03:32:39;;;;;;;0.10;0.10;;;12.00;99.90;;;;;;5118703;27;20040;-65
2023/10/22 03:35:06;;;;;;;0.10;0.10;;;12.00;99.90;;;;;;5114508;27;20052;-66
2023/10/22 03:37:32;;;;;;;0.40;0.40;;;12.00;99.90;;;;;;5079899;28;20039;-65
2023/10/22 03:39:57;;;;;;;0.00;0.00;;;12.00;99.90;;;;;;5084568;28;20432;-64
2023/10/22 03:42:23;;;;;;;0.30;0.25;;;12.00;99.90;;;;;;5081443;28;20403;-65
2023/10/22 03:44:48;;;;;;;0.05;0.05;;;12.00;99.90;;;;;;5081663;27;20081;-65
2023/10/22 03:47:14;;;;;;;1.85;0.57;;;11.90;99.90;;;;;;5081169;27;20028;-65
2023/10/22 03:49:39;;;;;;;0.13;0.10;;;12.00;99.90;;;;;;5086735;28;20101;-65
2023/10/22 03:52:05;;;;;;;0.10;0.10;;;12.00;99.90;;;;;;5081964;28;20474;-65
2023/10/22 03:54:31;;;;;;;0.15;0.15;;;12.00;99.90;;;;;;5115657;27;21911;-65
2023/10/22 03:56:57;;;;;;;0.10;0.10;;;12.00;99.90;;;;;;5078647;28;20044;-65
2023/10/22 03:59:22;;;;;;;0.30;0.30;;;12.00;99.90;;;;;;5086891;28;20038;-65
2023/10/22 04:01:48;;;;;;;0.30;0.30;;;12.00;99.90;;;;;;5065705;28;20042;-65
2023/10/22 04:04:13;;;;;;;0.10;0.10;;;12.00;99.90;;;;;;5086138;27;20035;-65
2023/10/22 04:06:39;;;;;;;0.20;0.20;;;12.00;99.90;;;;;;5079410;28;20489;-65
2023/10/22 04:09:04;;;;;;;0.10;0.10;;;12.00;99.90;;;;;;5103524;27;20039;-65
2023/10/22 04:11:30;;;;;;;0.45;0.20;;;12.00;99.90;;;;;;5101715;27;20047;-65
2023/10/22 04:13:56;;;;;;;0.32;0.32;;;12.00;99.90;;;;;;5084330;28;20449;-65
2023/10/22 04:16:21;;;;;;;0.10;0.10;;;12.00;99.90;;;;;;5080140;28;20278;-65
2023/10/22 04:18:47;;;;;;;0.10;0.10;;;12.00;99.90;;;;;;5083578;27;20067;-65
2023/10/22 04:21:16;;;;;;;0.10;0.10;;;12.00;99.90;;;;;;5083044;27;20078;-66
2023/10/22 04:23:42;;;;;;;0.10;0.10;;;12.00;99.90;;;;;;5119440;27;20044;-65
2023/10/22 04:26:14;;;;;;;0.00;0.00;;;12.00;99.90;;;;;;5087122;28;20524;-65
2023/10/22 04:28:42;;;;;;;0.10;0.10;;;12.00;99.90;;;;;;5094247;27;20044;-66
2023/10/22 04:31:09;;;;;;;0.38;0.32;;;12.10;99.90;;;;;;5081216;28;20044;-65
2023/10/22 04:33:35;;;;;;;0.20;0.10;;;12.00;99.90;;;;;;5092634;28;20340;-64
2023/10/22 04:36:01;;;;;;;0.10;0.10;;;12.10;99.90;;;;;;5088575;28;20047;-65
2023/10/22 04:38:28;;;;;;;0.52;0.40;;;12.10;99.90;;;;;;5080438;28;20052;-65
2023/10/22 04:40:55;;;;;;;0.20;0.20;;;12.10;99.90;;;;;;5085860;28;20414;-65
2023/10/22 04:43:21;;;;;;;0.17;0.17;;;12.10;99.90;;;;;;5087994;27;20049;-65
2023/10/22 04:45:50;;;;;;;0.10;0.10;;;12.20;99.90;;;;;;5115658;27;20134;-65
2023/10/22 04:48:16;;;;;;;0.10;0.10;;;12.10;99.90;;;;;;5085759;28;20177;-66
2023/10/22 04:50:42;;;;;;;0.10;0.10;;;12.10;99.90;;;;;;5091079;27;20039;-65
2023/10/22 04:53:08;;;;;;;0.10;0.10;;;12.20;99.90;;;;;;5112968;27;20052;-65
2023/10/22 04:55:34;;;;;;;0.10;0.10;;;12.20;99.90;;;;;;5087686;28;20432;-65
2023/10/22 04:58:00;;;;;;;0.20;0.20;;;12.20;99.90;;;;;;5089019;27;20139;-65
2023/10/22 05:00:27;;;;;;;0.05;0.05;;;12.20;99.90;;;;;;5112050;27;20402;-65
2023/10/22 05:02:54;;;;;;;0.10;0.10;;;12.20;99.90;;;;;;5088621;28;20062;-65
2023/10/22 05:05:21;;;;;;;0.10;0.10;;;12.20;99.90;;;;;;5081297;27;20031;-65
2023/10/22 05:07:49;;;;;;;0.25;0.25;;;12.30;99.90;;;;;;5112851;27;20048;-65
2023/10/22 05:10:14;;;;;;;7.30;0.20;;;12.30;99.90;;;;;;5091706;27;20039;-66
2023/10/22 05:12:40;;;;;;;0.10;0.10;;;12.30;99.90;;;;;;5081051;28;20039;-65
2023/10/22 05:15:06;;;;;;;0.10;0.10;;;12.30;99.90;;;;;;5106304;28;20032;-64
2023/10/22 05:17:33;;;;;;;0.10;0.10;;;12.40;99.90;;;;;;5106413;27;20060;-65
2023/10/22 05:19:59;;;;;;;0.40;0.40;;;12.50;99.90;;;;;;5090220;27;20039;-64
2023/10/22 05:22:25;;;;;;;0.90;0.90;;;12.50;99.90;;;;;;5087071;28;20110;-65
2023/10/22 05:24:50;;;;;;;0.10;0.10;;;12.50;99.90;;;;;;5086015;28;20039;-64
2023/10/22 05:27:17;;;;;;;0.05;0.05;;;12.50;99.90;;;;;;5073990;27;20060;-64
2023/10/22 05:29:48;;;;;;;0.20;0.20;;;12.50;99.90;;;;;;5081783;27;20036;-64
2023/10/22 05:32:16;;;;;;;0.20;0.20;;;12.40;99.90;;;;;;5114187;27;20501;-65
2023/10/22 05:34:42;;;;;;;0.43;0.43;;;12.40;99.90;;;;;;5090202;28;20043;-65
2023/10/22 05:37:08;;;;;;;0.32;0.32;;;12.40;99.90;;;;;;5088507;28;20375;-65
2023/10/22 05:39:36;;;;;;;0.10;0.10;;;12.40;99.90;;;;;;5108118;27;20126;-65
2023/10/22 05:42:04;;;;;;;0.32;0.32;;;12.30;99.90;;;;;;5089358;27;20508;-64
2023/10/22 05:44:29;;;;;;;0.10;0.10;;;12.30;99.90;;;;;;5089883;28;20070;-65
2023/10/22 05:46:55;;;;;;;0.17;0.17;;;12.10;99.90;;;;;;5085864;28;20397;-64
2023/10/22 05:49:20;;;;;;;0.15;0.10;;;11.90;99.90;;;;;;5091247;28;20390;-65
2023/10/22 05:51:46;;;;;;;0.10;0.10;;;11.80;99.90;;;;;;5113157;27;20040;-64
2023/10/22 05:54:12;;;;;;;0.20;0.20;;;11.70;99.90;;;;;;5087464;28;20456;-66
2023/10/22 05:56:38;;;;;;;0.30;0.30;;;11.60;99.90;;;;;;5088557;28;20047;-64
2023/10/22 05:59:08;;;;;;;0.15;0.15;;;11.50;99.90;;;;;;5118940;27;20458;-66
2023/10/22 06:01:38;;;;;;;0.10;0.10;;;11.50;99.90;;;;;;5091415;28;20036;-65
2023/10/22 06:04:05;;;;;;;0.20;0.20;;;11.40;99.90;;;;;;5107761;27;20078;-65
2023/10/22 06:06:30;;;;;;;0.15;0.15;;;11.40;99.90;;;;;;5097059;27;20074;-66
2023/10/22 06:08:56;;;;;;;0.40;0.38;;;11.40;99.90;;;;;;5088847;28;20126;-63
2023/10/22 06:11:21;;;;;;;0.10;0.10;;;11.40;99.90;;;;;;5088733;28;20078;-65
2023/10/22 06:13:47;;;;;;;0.20;0.20;;;11.40;99.90;;;;;;5097932;27;20144;-63
2023/10/22 06:16:13;;;;;;;0.85;0.40;;;11.30;99.90;;;;;;5107850;27;20035;-65
2023/10/22 06:18:38;;;;;;;0.10;0.10;;;11.30;99.90;;;;;;5089579;28;20058;-64
2023/10/22 06:21:14;;;;;;;0.50;0.50;;;11.30;99.90;;;;;;5088155;27;20038;-64
2023/10/22 06:23:40;;;;;;;0.15;0.10;;;11.40;99.90;;;;;;5088880;28;20130;-64
2023/10/22 06:26:11;;;;;;;0.40;0.40;;;11.30;99.90;;;;;;5113169;27;20210;-64
2023/10/22 06:28:41;;;;;;;0.10;0.10;;;11.30;99.90;;;;;;5084957;27;20051;-64
2023/10/22 06:31:12;;;;;;;1.00;0.35;;;11.40;99.90;;;;;;5098471;27;20047;-63
2023/10/22 06:33:39;;;;;;;0.20;0.20;;;11.40;99.90;;;;;;5112174;27;20058;-64
2023/10/22 06:36:12;;;;;;;0.30;0.30;;;11.30;99.90;;;;;;5088790;28;20088;-64
2023/10/22 06:38:38;;;;;;;0.80;0.40;;;11.30;99.90;;;;;;5090046;28;20051;-63
2023/10/22 06:41:05;;;;;;;0.82;0.32;;;11.30;99.90;;;;;;5088683;28;20042;-64
2023/10/22 06:43:30;;;;;;;0.45;0.45;;;11.30;99.90;;;;;;5091652;28;20036;-64
2023/10/22 06:45:59;;;;;;;0.28;0.28;;;11.20;99.90;;;;;;5114585;27;20036;-64
2023/10/22 06:48:25;;;;;;;0.10;0.10;;;11.20;99.90;;;;;;5114584;27;20394;-64
2023/10/22 06:50:50;;;;;;;0.10;0.10;;;11.20;99.90;;;;;;5091267;28;20051;-64
2023/10/22 06:53:16;;;;;;;0.57;0.47;;;11.20;99.90;;;;;;5088538;28;20078;-64
2023/10/22 06:55:42;;;;;;;0.17;0.17;;;11.20;99.90;;;;;;5088078;28;20051;-63
2023/10/22 06:58:08;;;;;;;0.20;0.20;;;11.20;99.90;;;;;;5084567;28;20027;-63
2023/10/22 07:00:33;;;;;;;0.40;0.40;;;11.20;99.90;;;;;;5089275;28;20386;-64
2023/10/22 07:02:59;;;;;;;0.10;0.10;;;11.20;99.90;;;;;;5088489;28;20547;-63
2023/10/22 07:05:24;;;;;;;0.32;0.32;;;11.20;99.90;;;;;;5091284;28;20489;-63
2023/10/22 07:07:50;;;;;;;0.20;0.20;;;11.30;99.90;;;;;;5085668;28;20051;-64
2023/10/22 07:10:15;;;;;;;0.30;0.30;;;11.20;99.90;;;;;;5108283;28;20383;-63
2023/10/22 07:12:41;;;;;;;0.40;0.30;;;11.30;99.90;;;;;;5089893;28;20055;-65
2023/10/22 07:15:09;;;;;;;0.17;0.17;;;11.30;99.90;;;;;;5086935;28;20067;-64
2023/10/22 07:17:34;;;;;;;0.20;0.20;;;11.30;99.90;;;;;;5083763;28;20077;-65
2023/10/22 07:20:00;;;;;;;1.20;0.45;;;11.30;99.90;;;;;;5115289;28;20075;-64
2023/10/22 07:22:26;;;;;;;0.15;0.15;;;11.30;99.90;;;;;;5105515;28;20062;-64
2023/10/22 07:24:51;;;;;;;0.75;0.30;;;11.40;99.90;;;;;;5098334;28;20442;-64
2023/10/22 07:27:17;;;;;;;0.13;0.13;;;11.40;99.90;;;;;;5091145;28;20036;-64
2023/10/22 07:29:42;;;;;;;0.35;0.35;;;11.40;99.90;;;;;;5114279;28;20047;-64
2023/10/22 07:32:08;;;;;;;0.10;0.10;;;11.40;99.90;;;;;;5105130;28;20038;-65
2023/10/22 07:34:33;;;;;;;0.28;0.28;;;11.40;99.90;;;;;;5089875;28;20043;-65
2023/10/22 07:36:59;;;;;;;0.20;0.20;;;11.40;99.90;;;;;;5087311;28;20040;-64
2023/10/22 07:39:24;;;;;;;0.20;0.20;;;11.40;99.90;;;;;;5086437;28;20032;-64
2023/10/22 07:41:50;;;;;;;0.10;0.10;;;11.50;99.90;;;;;;5111653;27;22956;-64
2023/10/22 07:44:15;;;;;;;0.57;0.20;;;11.50;99.90;;;;;;5085371;28;20039;-64
2023/10/22 07:46:41;;;;;;;0.20;0.20;;;11.50;99.90;;;;;;5089705;28;20462;-65
2023/10/22 07:49:07;;;;;;;0.20;0.20;;;11.50;99.90;;;;;;5090496;28;20078;-65
2023/10/22 07:51:32;;;;;;;3.30;1.08;;;11.60;99.90;;;;;;5099838;28;20050;-64
2023/10/22 07:53:58;;;;;;;0.10;0.10;;;11.60;99.90;;;;;;5088480;28;20050;-65
2023/10/22 07:56:23;;;;;;;0.47;0.20;;;11.60;99.90;;;;;;5084037;28;20044;-64
2023/10/22 07:58:49;;;;;;;1.65;0.30;;;11.70;99.90;;;;;;5086937;28;20039;-65
2023/10/22 08:01:15;;;;;;;0.10;0.10;;;11.70;99.90;;;;;;5090437;28;20428;-65
2023/10/22 08:03:40;;;;;;;0.40;0.40;;;11.70;99.90;;;;;;5099599;28;20445;-64
2023/10/22 08:06:06;;;;;;;0.30;0.30;;;11.70;99.90;;;;;;5089523;28;20032;-65
2023/10/22 08:08:32;;;;;;;0.20;0.20;;;11.80;99.90;;;;;;5089593;27;20126;-65
2023/10/22 08:10:59;;;;;;;3.42;1.95;;;11.80;99.90;;;;;;5089558;28;20066;-65
2023/10/22 08:13:25;;;;;;;0.30;0.30;;;11.80;99.90;;;;;;5111805;27;20047;-66
2023/10/22 08:15:52;;;;;;;0.10;0.10;;;11.90;99.90;;;;;;5094245;27;20122;-65
2023/10/22 08:18:18;;;;;;;1.55;0.40;;;11.90;99.90;;;;;;5091805;28;20047;-66
2023/10/22 08:20:43;;;;;;;0.25;0.25;;;11.90;99.90;;;;;;5076412;28;20035;-65
2023/10/22 08:23:09;;;;;;;0.25;0.25;;;12.00;99.90;;;;;;5085503;28;20039;-66
2023/10/22 08:25:35;;;;;;;0.45;0.35;;;12.00;99.90;;;;;;5075120;28;20036;-65
2023/10/22 08:28:01;;;;;;;1.42;0.32;;;12.10;99.90;;;;;;5087629;28;20040;-65
2023/10/22 08:30:27;;;;;;;0.85;0.47;;;12.10;99.90;;;;;;5096455;28;20119;-65
2023/10/22 08:32:52;;;;;;;0.22;0.22;;;12.20;99.90;;;;;;5085313;28;20123;-65
2023/10/22 08:35:18;;;;;;;0.50;0.50;;;12.30;99.90;;;;;;5090346;27;20040;-65
2023/10/22 08:37:44;;;;;;;0.32;0.30;;;12.30;99.90;;;;;;5089450;28;20035;-66
2023/10/22 08:40:10;;;;;;;0.75;0.38;;;12.40;99.90;;;;;;5116909;27;20043;-66
2023/10/22 08:42:36;;;;;;;1.13;0.30;;;12.40;99.90;;;;;;5107539;27;20426;-65
2023/10/22 08:45:07;;;;;;;0.17;0.17;;;12.40;99.90;;;;;;5096771;27;20485;-66
2023/10/22 08:47:34;;;;;;;0.20;0.20;;;12.30;99.90;;;;;;5083011;27;20027;-65
2023/10/22 08:50:01;;;;;;;1.45;0.52;;;12.30;99.90;;;;;;5092991;28;20427;-67
2023/10/22 08:52:27;;;;;;;0.20;0.20;;;12.30;99.90;;;;;;5086102;28;20042;-67
2023/10/22 08:54:53;;;;;;;0.10;0.10;;;12.30;99.90;;;;;;5082604;28;20119;-65
2023/10/22 08:57:20;;;;;;;0.47;0.47;;;12.30;99.90;;;;;;5101489;28;20172;-65
2023/10/22 08:59:47;;;;;;;1.13;0.60;;;12.30;99.90;;;;;;5110636;27;20047;-66
2023/10/22 09:02:21;;;;;;;0.13;0.13;;;12.30;99.90;;;;;;5077950;28;20412;-65
2023/10/22 09:04:46;;;;;;;2.38;0.52;;;12.30;99.90;;;;;;5092299;28;20036;-66
2023/10/22 09:07:12;;;;;;;0.28;0.25;;;12.30;99.90;;;;;;5092371;28;20040;-65
2023/10/22 09:09:39;;;;;;;0.85;0.40;;;12.40;99.90;;;;;;5088905;28;20039;-65
2023/10/22 09:12:10;;;;;;;0.20;0.20;;;12.40;99.90;;;;;;5089044;28;20029;-65
2023/10/22 09:14:36;;;;;;;0.50;0.50;;;12.30;99.90;;;;;;5083726;28;20419;-65
2023/10/22 09:17:18;;;;;;;1.55;1.38;;;12.40;99.90;;;;;;5123896;27;20047;-65
2023/10/22 09:19:47;;;;;;;0.20;0.20;;;12.50;99.90;;;;;;5081686;28;20111;-65
2023/10/22 09:22:26;;;;;;;0.68;0.30;;;12.50;99.90;;;;;;5116299;27;20062;-66
2023/10/22 09:24:57;;;;;;;1.02;0.47;;;12.60;99.90;;;;;;5081096;28;20085;-65
2023/10/22 09:27:28;;;;;;;0.35;0.32;;;12.60;99.90;;;;;;5090353;28;20454;-65
2023/10/22 09:30:01;;;;;;;0.25;0.20;;;12.70;99.90;;;;;;5088706;28;20047;-65
2023/10/22 09:32:27;;;;;;;0.30;0.30;;;12.70;99.90;;;;;;5090276;28;20039;-67
2023/10/22 09:34:53;;;;;;;0.93;0.20;;;12.80;99.90;;;;;;5088957;28;20452;-66
2023/10/22 09:37:18;;;;;;;0.45;0.45;;;12.80;99.90;;;;;;5089382;28;20032;-66
2023/10/22 09:39:45;;;;;;;0.55;0.55;;;12.90;99.90;;;;;;5090466;28;20039;-66
2023/10/22 09:42:12;;;;;;;0.93;0.93;;;12.90;99.90;;;;;;5090551;28;20043;-67
2023/10/22 09:44:39;;;;;;;0.10;0.10;;;12.90;99.90;;;;;;5084728;28;20515;-67
2023/10/22 09:47:06;;;;;;;0.22;0.20;;;12.80;99.90;;;;;;5090644;28;20120;-67
2023/10/22 09:49:37;;;;;;;0.52;0.47;;;13.00;99.90;;;;;;5122718;27;20057;-66
2023/10/22 09:52:05;;;;;;;0.38;0.38;;;13.20;99.90;;;;;;5089154;28;20036;-66
2023/10/22 09:54:38;;;;;;;0.57;0.57;;;13.30;99.90;;;;;;5090170;28;20469;-65
2023/10/22 09:57:15;;;;;;;0.80;0.30;;;13.40;99.90;;;;;;5121565;27;20455;-66
2023/10/22 09:59:42;;;;;;;0.60;0.30;;;13.60;99.90;;;;;;5094482;28;20036;-66
2023/10/22 10:02:15;;;;;;;1.27;0.35;;;13.70;99.90;;;;;;5095227;28;20572;-68
2023/10/22 10:04:44;;;;;;;1.17;0.50;;;13.80;99.90;;;;;;5089987;28;20180;-65
2023/10/22 10:07:10;;;;;;;3.63;0.50;;;13.90;99.90;;;;;;5086969;28;20078;-66
2023/10/22 10:09:36;;;;;;;2.10;1.55;;;13.80;99.90;;;;;;5087685;28;20497;-66
2023/10/22 10:12:08;;;;;;;0.20;0.20;;;13.60;99.90;;;;;;5084695;28;20039;-66
2023/10/22 10:14:38;;;;;;;1.25;0.63;;;13.50;99.90;;;;;;5090139;28;20027;-65
2023/10/22 10:17:04;;;;;;;1.98;0.30;;;13.30;99.90;;;;;;5084143;28;20406;-68
2023/10/22 10:19:30;;;;;;;0.40;0.40;;;13.20;99.90;;;;;;5120784;27;20035;-68
2023/10/22 10:21:56;;;;;;;0.20;0.20;;;13.00;99.90;;;;;;5063271;28;20519;-67
2023/10/22 10:24:25;;;;;;;0.30;0.30;;;12.90;99.90;;;;;;5082502;28;20378;-66
2023/10/22 10:26:56;;;;;;;0.50;0.50;;;12.90;99.90;;;;;;5111539;27;20031;-67
2023/10/22 10:29:26;;;;;;;0.90;0.73;;;12.90;99.90;;;;;;5075169;28;20062;-67
2023/10/22 10:31:53;;;;;;;0.60;0.60;;;12.90;99.90;;;;;;5112324;27;20306;-67
2023/10/22 10:34:36;;;;;;;0.40;0.40;;;12.90;99.90;;;;;;5085296;28;20451;-67
2023/10/22 10:37:13;;;;;;;0.57;0.43;;;12.90;99.90;;;;;;5084357;28;20031;-66
2023/10/22 10:39:42;;;;;;;0.52;0.22;;;12.90;99.90;;;;;;5116941;27;20031;-65
2023/10/22 10:42:11;;;;;;;0.40;0.40;;;12.90;99.90;;;;;;5079783;28;20409;-67
2023/10/22 10:44:58;;;;;;;0.25;0.25;;;12.90;99.90;;;;;;5085057;28;20048;-66
2023/10/22 10:47:33;;;;;;;0.20;0.20;;;12.80;99.90;;;;;;5112461;27;20462;-67
2023/10/22 10:50:03;;;;;;;0.98;0.98;;;12.80;99.90;;;;;;5086419;28;20035;-66
2023/10/22 10:52:31;;;;;;;0.55;0.45;;;12.80;99.90;;;;;;5066573;28;20035;-65
2023/10/22 10:55:06;;;;;;;0.20;0.20;;;12.80;99.90;;;;;;5087373;28;20570;-65
2023/10/22 10:57:37;;;;;;;0.30;0.30;;;12.90;99.90;;;;;;5086156;28;20115;-64
2023/10/22 11:00:09;;;;;;;0.60;0.60;;;12.90;99.90;;;;;;5084216;28;20474;-65
2023/10/22 11:02:46;;;;;;;1.10;0.65;;;13.00;99.90;;;;;;5087345;28;20039;-66
2023/10/22 11:05:12;;;;;;;0.32;0.20;;;13.20;99.90;;;;;;5089003;28;20051;-66
2023/10/22 11:07:38;;;;;;;0.47;0.45;;;13.30;99.90;;;;;;5082138;28;20039;-65
2023/10/22 11:10:10;;;;;;;0.45;0.40;;;13.40;99.90;;;;;;5082178;28;20130;-66
2023/10/22 11:12:38;;;;;;;0.10;0.10;;;13.50;99.90;;;;;;5086146;28;20359;-67
2023/10/22 11:15:04;;;;;;;1.08;0.75;;;13.50;99.90;;;;;;5084734;28;20508;-67
2023/10/22 11:17:30;;;;;;;0.32;0.20;;;13.50;99.90;;;;;;5084081;28;20087;-65
2023/10/22 11:19:56;;;;;;;0.20;0.20;;;13.40;99.90;;;;;;5084257;28;20067;-67
2023/10/22 11:22:23;;;;;;;2.65;0.35;;;13.40;99.90;;;;;;5082888;28;20032;-66
2023/10/22 11:24:49;;;;;;;0.13;0.13;;;13.40;99.90;;;;;;5110197;28;20107;-66
2023/10/22 11:27:15;;;;;;;0.10;0.10;;;13.30;99.90;;;;;;5088998;28;20390;-67
2023/10/22 11:29:48;;;;;;;0.03;0.03;;;13.30;99.90;;;;;;5088425;28;20333;-67
2023/10/22 11:32:15;;;;;;;0.20;0.20;;;13.20;99.90;;;;;;5085493;28;20051;-65
2023/10/22 11:35:00;;;;;;;0.20;0.20;;;13.10;99.90;;;;;;5082476;28;20035;-66
2023/10/22 11:37:39;;;;;;;0.68;0.65;;;13.10;99.90;;;;;;5082506;28;20035;-65
2023/10/22 11:40:28;;;;;;;0.10;0.10;;;13.10;99.90;;;;;;5086417;28;20078;-67
2023/10/22 11:42:55;;;;;;;0.20;0.20;;;13.10;99.90;;;;;;5089580;28;20062;-65
2023/10/22 11:45:21;;;;;;;0.20;0.20;;;13.10;99.90;;;;;;5092681;28;20053;-66
2023/10/22 11:47:46;;;;;;;0.20;0.20;;;13.10;99.90;;;;;;5089265;28;20036;-66
2023/10/22 11:50:14;;;;;;;0.60;0.60;;;13.10;99.90;;;;;;5092104;28;20045;-65
2023/10/22 11:52:46;;;;;;;2.05;0.65;;;13.20;99.90;;;;;;5092095;28;20043;-65
2023/10/22 11:55:12;;;;;;;0.10;0.10;;;13.20;99.90;;;;;;5088188;28;20079;-66
2023/10/22 11:57:41;;;;;;;1.38;1.05;;;13.30;99.90;;;;;;5090892;28;20089;-66
2023/10/22 12:00:11;;;;;;;0.10;0.10;;;13.30;99.90;;;;;;5088549;28;20097;-65
2023/10/22 12:02:37;;;;;;;0.10;0.10;;;13.50;99.90;;;;;;5093861;27;20040;-66
2023/10/22 12:05:03;;;;;;;0.32;0.32;;;13.50;99.90;;;;;;5107474;28;20040;-65
2023/10/22 12:07:29;;;;;;;0.15;0.15;;;13.50;99.90;;;;;;5090000;28;20386;-66
2023/10/22 12:09:54;;;;;;;0.10;0.10;;;13.50;99.90;;;;;;5084387;28;20040;-67
2023/10/22 12:12:20;;;;;;;0.43;0.20;;;13.50;99.90;;;;;;5087041;28;20046;-66
2023/10/22 12:14:46;;;;;;;0.25;0.20;;;13.50;99.90;;;;;;5121735;27;20115;-67
2023/10/22 12:17:12;;;;;;;0.10;0.10;;;13.60;99.90;;;;;;5088114;28;20071;-67
2023/10/22 12:19:38;;;;;;;0.20;0.20;;;13.60;99.90;;;;;;5113891;27;20114;-66
2023/10/22 12:22:04;;;;;;;0.10;0.10;;;13.60;99.90;;;;;;5092422;28;20036;-66
2023/10/22 12:24:31;;;;;;;1.52;0.90;;;13.50;99.90;;;;;;5090247;28;20036;-65
2023/10/22 12:26:57;;;;;;;0.10;0.10;;;13.50;99.90;;;;;;5090445;28;20070;-66
2023/10/22 12:29:23;;;;;;;0.22;0.10;;;13.30;99.90;;;;;;5081155;27;20127;-66
2023/10/22 12:31:48;;;;;;;0.10;0.10;;;13.30;99.90;;;;;;5094747;27;20405;-65
2023/10/22 12:34:14;;;;;;;0.57;0.28;;;13.20;99.90;;;;;;5090656;28;20101;-65
2023/10/22 12:36:39;;;;;;;0.10;0.10;;;13.20;99.90;;;;;;5086326;28;20102;-65
2023/10/22 12:39:07;;;;;;;0.10;0.10;;;13.20;99.90;;;;;;5114304;27;20112;-65
2023/10/22 12:41:33;;;;;;;0.20;0.20;;;13.20;99.90;;;;;;5083427;27;20073;-65
2023/10/22 12:43:59;;;;;;;0.22;0.22;;;13.20;99.90;;;;;;5086664;28;20040;-65
2023/10/22 12:46:24;;;;;;;1.85;0.77;;;13.40;99.90;;;;;;5089150;28;20039;-66